Time;durP1;ratioP1;P1;durP2;ratioP2;P2;SDS_P1;SDS_P2;PMS_P1;PMS_P2;Temp;Humidity;BMP_temperature;BMP_pressure;BME280_temperature;BME280_humidity;BME280_pressure;Samples;Min_cycle;Max_cycle;Signal;HPM_P1;HPM_P2
2020/12/29 00:00:25;;;;;;;8.00;6.20;;;4.30;92.40;;;;;;5095180;28;20439;-79
2020/12/29 00:02:51;;;;;;;9.57;6.30;;;4.30;92.40;;;;;;5095482;28;20779;-80
2020/12/29 00:05:17;;;;;;;7.60;5.40;;;4.40;92.30;;;;;;5095005;28;20448;-80
2020/12/29 00:07:53;;;;;;;6.63;5.17;;;4.30;92.30;;;;;;5095690;28;20491;-80
2020/12/29 00:10:21;;;;;;;5.87;4.90;;;4.30;92.30;;;;;;5095363;28;20434;-80
2020/12/29 00:12:47;;;;;;;5.57;4.40;;;4.30;92.30;;;;;;5095425;28;20849;-80
2020/12/29 00:15:13;;;;;;;4.37;3.97;;;4.20;92.30;;;;;;5095179;28;20471;-79
2020/12/29 00:17:39;;;;;;;5.17;4.50;;;4.20;92.20;;;;;;5095317;28;20857;-80
2020/12/29 00:20:06;;;;;;;5.97;4.33;;;4.20;92.10;;;;;;5095327;28;20455;-80
2020/12/29 00:22:32;;;;;;;5.40;4.20;;;4.20;91.90;;;;;;5095611;28;20454;-80
2020/12/29 00:24:59;;;;;;;5.93;4.27;;;4.20;91.90;;;;;;5095990;28;20930;-81
2020/12/29 00:27:26;;;;;;;5.20;4.33;;;4.20;92.00;;;;;;5098351;28;20495;-80
2020/12/29 00:29:52;;;;;;;5.47;4.93;;;4.20;92.00;;;;;;5098117;28;20549;-80
2020/12/29 00:32:19;;;;;;;4.30;3.90;;;4.10;91.90;;;;;;5097306;28;20443;-80
2020/12/29 00:34:46;;;;;;;4.80;4.30;;;4.20;91.90;;;;;;5097479;28;20443;-80
2020/12/29 00:37:12;;;;;;;5.03;4.53;;;4.30;91.80;;;;;;5096407;28;20968;-80
2020/12/29 00:39:38;;;;;;;4.70;4.30;;;4.30;91.40;;;;;;5096814;28;20431;-80
2020/12/29 00:42:04;;;;;;;7.43;5.10;;;4.40;91.30;;;;;;5096789;28;20448;-80
2020/12/29 00:44:32;;;;;;;7.27;5.27;;;4.30;91.10;;;;;;5096289;28;20460;-80
2020/12/29 00:46:58;;;;;;;7.30;4.77;;;4.20;91.10;;;;;;5096619;28;20483;-80
2020/12/29 00:49:24;;;;;;;5.90;4.27;;;4.20;91.20;;;;;;5100822;28;20443;-80
2020/12/29 00:51:52;;;;;;;5.30;4.73;;;4.10;91.20;;;;;;5101216;28;20447;-80
2020/12/29 00:54:18;;;;;;;6.17;4.73;;;4.20;91.50;;;;;;5100164;28;20450;-79
2020/12/29 00:56:44;;;;;;;6.30;5.13;;;4.20;91.20;;;;;;5099764;28;20478;-80
2020/12/29 00:59:11;;;;;;;5.00;4.50;;;4.20;91.10;;;;;;5100715;28;20434;-80
2020/12/29 01:01:38;;;;;;;4.33;3.93;;;4.20;91.00;;;;;;5100318;28;20443;-80
2020/12/29 01:04:04;;;;;;;4.77;4.37;;;4.20;91.00;;;;;;5100562;28;20449;-80
2020/12/29 01:06:31;;;;;;;6.33;4.90;;;4.20;90.70;;;;;;5099791;28;20494;-80
2020/12/29 01:08:58;;;;;;;5.63;4.90;;;4.30;90.80;;;;;;5099371;28;20493;-79
2020/12/29 01:11:25;;;;;;;5.30;4.40;;;4.30;90.50;;;;;;5099535;28;20447;-79
2020/12/29 01:13:51;;;;;;;3.77;3.40;;;4.20;90.30;;;;;;5099987;28;20443;-79
2020/12/29 01:16:18;;;;;;;5.80;4.20;;;4.20;90.50;;;;;;5099459;28;20458;-80
2020/12/29 01:18:45;;;;;;;4.50;4.10;;;4.10;90.60;;;;;;5099694;28;20497;-79
2020/12/29 01:21:11;;;;;;;4.33;3.93;;;4.00;90.80;;;;;;5099195;28;20803;-80
2020/12/29 01:23:37;;;;;;;5.33;4.03;;;3.90;91.00;;;;;;5098999;28;20764;-80
2020/12/29 01:26:04;;;;;;;6.50;4.07;;;3.90;91.10;;;;;;5098005;28;20517;-79
2020/12/29 01:28:30;;;;;;;4.53;4.13;;;3.90;90.90;;;;;;5100019;28;20450;-80
2020/12/29 01:30:57;;;;;;;4.80;4.37;;;4.00;91.10;;;;;;5099772;28;20807;-80
2020/12/29 01:33:23;;;;;;;4.90;4.10;;;4.10;90.90;;;;;;5098963;28;20446;-80
2020/12/29 01:35:50;;;;;;;4.43;4.03;;;4.20;90.70;;;;;;5099208;28;20451;-79
2020/12/29 01:38:16;;;;;;;6.50;4.00;;;4.30;90.30;;;;;;5099829;28;20439;-80
2020/12/29 01:40:42;;;;;;;5.20;3.77;;;4.30;90.40;;;;;;5100230;28;20968;-81
2020/12/29 01:43:09;;;;;;;4.63;3.80;;;4.20;90.10;;;;;;5102189;28;20443;-81
2020/12/29 01:45:35;;;;;;;4.40;3.90;;;4.10;90.10;;;;;;5100769;28;20477;-80
2020/12/29 01:48:01;;;;;;;6.73;4.13;;;4.00;90.20;;;;;;5101243;28;20490;-80
2020/12/29 01:50:27;;;;;;;4.80;4.07;;;3.90;90.30;;;;;;5101750;28;20451;-80
2020/12/29 01:52:59;;;;;;;5.27;4.40;;;4.10;90.70;;;;;;5101147;28;20428;-80
2020/12/29 01:55:26;;;;;;;4.57;4.13;;;4.10;90.50;;;;;;5100907;28;20444;-80
2020/12/29 01:57:52;;;;;;;3.50;3.20;;;4.20;90.00;;;;;;5099965;28;20839;-80
2020/12/29 02:00:19;;;;;;;4.60;4.17;;;4.10;90.00;;;;;;5099510;28;20451;-80
2020/12/29 02:02:46;;;;;;;4.80;4.27;;;4.00;90.10;;;;;;5099513;28;20422;-80
2020/12/29 02:05:13;;;;;;;4.70;4.30;;;3.90;90.20;;;;;;5099541;28;20554;-80
2020/12/29 02:07:40;;;;;;;6.07;4.10;;;3.70;90.60;;;;;;5098704;28;20485;-80
2020/12/29 02:10:07;;;;;;;4.87;4.37;;;3.70;90.90;;;;;;5098744;28;20821;-80
2020/12/29 02:12:35;;;;;;;5.00;4.50;;;3.80;90.90;;;;;;5098555;28;20447;-81
2020/12/29 02:15:03;;;;;;;5.63;4.57;;;3.90;90.70;;;;;;5098498;28;20450;-80
2020/12/29 02:17:29;;;;;;;5.63;4.23;;;3.80;90.40;;;;;;5098320;28;20463;-80
2020/12/29 02:19:55;;;;;;;3.77;3.47;;;3.80;90.40;;;;;;5097833;28;20454;-80
2020/12/29 02:22:24;;;;;;;4.17;3.70;;;3.90;90.60;;;;;;5097722;28;20448;-80
2020/12/29 02:24:52;;;;;;;4.47;4.07;;;3.90;90.30;;;;;;5097684;28;20427;-80
2020/12/29 02:27:19;;;;;;;4.13;3.73;;;3.90;90.30;;;;;;5096951;28;20497;-80
2020/12/29 02:29:45;;;;;;;5.30;4.53;;;3.90;90.50;;;;;;5096729;28;20455;-80
2020/12/29 02:32:12;;;;;;;4.50;4.10;;;3.80;90.40;;;;;;5096737;28;20447;-81
2020/12/29 02:34:39;;;;;;;4.90;4.27;;;3.90;90.40;;;;;;5096977;28;20817;-80
2020/12/29 02:37:06;;;;;;;4.20;3.80;;;3.80;90.50;;;;;;5096584;28;21003;-79
2020/12/29 02:39:35;;;;;;;4.43;4.00;;;3.90;90.60;;;;;;5096949;28;20442;-80
2020/12/29 02:42:01;;;;;;;7.17;4.60;;;3.90;90.50;;;;;;5097243;28;20515;-80
2020/12/29 02:44:28;;;;;;;6.33;4.50;;;3.80;90.60;;;;;;5097048;28;20439;-80
2020/12/29 02:46:54;;;;;;;4.10;3.70;;;3.70;90.90;;;;;;5096560;28;20478;-80
2020/12/29 02:49:20;;;;;;;4.77;4.33;;;3.80;91.00;;;;;;5096767;28;20442;-80
2020/12/29 02:51:46;;;;;;;4.10;3.80;;;3.80;90.90;;;;;;5096753;28;20454;-80
2020/12/29 02:54:13;;;;;;;4.63;4.30;;;4.00;90.90;;;;;;5096465;28;20444;-80
2020/12/29 02:56:40;;;;;;;4.60;3.90;;;4.10;90.50;;;;;;5096519;28;20463;-80
2020/12/29 02:59:07;;;;;;;5.37;4.63;;;4.10;90.40;;;;;;5096459;28;20436;-80
2020/12/29 03:01:33;;;;;;;6.70;5.13;;;4.20;90.20;;;;;;5096315;28;20448;-80
2020/12/29 03:03:59;;;;;;;6.33;5.73;;;4.20;90.00;;;;;;5096851;28;20513;-80
2020/12/29 03:06:26;;;;;;;6.73;5.90;;;4.20;90.10;;;;;;5100821;28;20469;-80
2020/12/29 03:08:52;;;;;;;8.33;5.03;;;4.20;90.20;;;;;;5102125;28;20823;-81
2020/12/29 03:11:24;;;;;;;7.23;5.07;;;4.20;90.20;;;;;;5100149;28;20428;-81
2020/12/29 03:13:52;;;;;;;6.93;4.90;;;4.10;90.50;;;;;;5099529;28;20463;-80
2020/12/29 03:16:18;;;;;;;5.33;4.83;;;4.10;90.50;;;;;;5099996;28;20476;-81
2020/12/29 03:18:44;;;;;;;5.27;4.77;;;4.20;90.50;;;;;;5099356;28;20957;-80
2020/12/29 03:21:10;;;;;;;5.50;4.60;;;4.20;90.50;;;;;;5099165;28;20455;-79
2020/12/29 03:23:36;;;;;;;5.07;4.60;;;4.30;90.30;;;;;;5098523;28;20455;-81
2020/12/29 03:26:03;;;;;;;6.03;5.30;;;4.20;90.20;;;;;;5098275;28;20486;-81
2020/12/29 03:28:29;;;;;;;5.60;5.07;;;4.00;90.50;;;;;;5097825;28;20491;-80
2020/12/29 03:30:56;;;;;;;5.70;5.13;;;3.90;90.80;;;;;;5097681;28;20504;-80
2020/12/29 03:33:22;;;;;;;5.43;4.93;;;4.00;91.00;;;;;;5096859;28;20982;-80
2020/12/29 03:35:48;;;;;;;7.50;5.30;;;3.90;90.80;;;;;;5097326;28;20496;-81
2020/12/29 03:38:14;;;;;;;6.30;5.70;;;4.00;91.20;;;;;;5097494;28;20471;-80
2020/12/29 03:40:40;;;;;;;6.53;5.80;;;3.90;90.90;;;;;;5096808;28;20492;-80
2020/12/29 03:43:12;;;;;;;6.03;5.43;;;4.00;91.20;;;;;;5096670;28;20450;-80
2020/12/29 03:45:39;;;;;;;5.77;5.17;;;4.00;90.90;;;;;;5096762;28;20446;-80
2020/12/29 03:48:06;;;;;;;6.03;5.07;;;4.20;90.90;;;;;;5096539;28;20839;-80
2020/12/29 03:50:32;;;;;;;6.20;5.60;;;4.30;90.50;;;;;;5096381;28;20455;-79
2020/12/29 03:52:58;;;;;;;6.90;5.30;;;4.20;90.10;;;;;;5096141;28;20435;-79
2020/12/29 03:55:25;;;;;;;6.33;5.70;;;4.20;90.30;;;;;;5095841;28;20935;-80
2020/12/29 03:57:51;;;;;;;5.43;5.03;;;4.20;90.40;;;;;;5095736;28;20521;-79
2020/12/29 04:00:17;;;;;;;7.13;5.87;;;4.10;90.40;;;;;;5095745;28;20447;-79
2020/12/29 04:02:43;;;;;;;13.30;5.40;;;3.90;90.40;;;;;;5095658;28;20447;-80
2020/12/29 04:05:11;;;;;;;6.43;5.77;;;3.80;90.70;;;;;;5094917;28;20819;-80
2020/12/29 04:07:37;;;;;;;6.50;5.80;;;3.70;90.80;;;;;;5095494;28;20489;-80
2020/12/29 04:10:04;;;;;;;6.53;5.80;;;3.70;91.00;;;;;;5095322;28;20852;-80
2020/12/29 04:12:30;;;;;;;6.27;5.50;;;3.70;91.00;;;;;;5095307;28;20447;-79
2020/12/29 04:14:56;;;;;;;6.90;5.63;;;3.80;90.90;;;;;;5094708;28;20941;-79
2020/12/29 04:17:23;;;;;;;5.97;5.40;;;3.80;90.80;;;;;;5094884;28;20464;-80
2020/12/29 04:19:49;;;;;;;10.33;5.83;;;3.80;90.60;;;;;;5095083;28;20500;-79
2020/12/29 04:22:16;;;;;;;6.53;5.80;;;3.80;90.50;;;;;;5094367;28;20965;-80
2020/12/29 04:24:42;;;;;;;6.70;6.00;;;3.60;90.70;;;;;;5094350;28;20454;-79
2020/12/29 04:27:09;;;;;;;8.00;5.40;;;3.50;90.90;;;;;;5094056;28;20487;-79
2020/12/29 04:29:35;;;;;;;6.73;5.30;;;3.40;91.10;;;;;;5094823;28;20940;-81
2020/12/29 04:32:01;;;;;;;7.10;6.40;;;3.40;91.30;;;;;;5098959;28;20476;-81
2020/12/29 04:34:27;;;;;;;6.37;5.73;;;3.50;91.10;;;;;;5098506;28;20935;-81
2020/12/29 04:36:54;;;;;;;8.67;5.87;;;3.50;91.00;;;;;;5098319;28;20459;-81
2020/12/29 04:39:21;;;;;;;6.80;6.10;;;3.50;90.90;;;;;;5097933;28;20447;-80
2020/12/29 04:41:51;;;;;;;7.67;5.37;;;3.50;90.90;;;;;;5098059;28;20450;-80
2020/12/29 04:44:18;;;;;;;6.87;5.80;;;3.50;91.00;;;;;;5098368;28;20431;-81
2020/12/29 04:46:44;;;;;;;6.70;6.00;;;3.60;90.70;;;;;;5097371;28;20483;-81
2020/12/29 04:49:11;;;;;;;7.37;5.87;;;3.50;90.50;;;;;;5097160;28;20480;-80
2020/12/29 04:51:39;;;;;;;7.07;6.37;;;3.40;90.70;;;;;;5096861;28;20447;-81
2020/12/29 04:54:07;;;;;;;6.30;5.70;;;3.60;90.80;;;;;;5097095;28;20449;-80
2020/12/29 04:56:35;;;;;;;7.53;6.00;;;3.50;90.20;;;;;;5097487;28;20467;-80
2020/12/29 04:59:02;;;;;;;6.03;5.40;;;3.40;90.80;;;;;;5097057;28;20446;-80
2020/12/29 05:01:31;;;;;;;9.20;7.13;;;3.30;90.90;;;;;;5096844;28;20439;-81
2020/12/29 05:03:57;;;;;;;6.93;6.20;;;3.20;91.10;;;;;;5096981;28;20457;-81
2020/12/29 05:06:24;;;;;;;7.20;6.27;;;3.30;91.10;;;;;;5096052;28;20516;-80
2020/12/29 05:08:54;;;;;;;6.70;6.10;;;3.20;90.90;;;;;;5097059;28;20517;-80
2020/12/29 05:11:22;;;;;;;6.80;6.07;;;3.30;90.80;;;;;;5097201;28;20436;-80
2020/12/29 05:13:50;;;;;;;8.83;6.20;;;3.40;90.80;;;;;;5096118;28;20450;-79
2020/12/29 05:16:17;;;;;;;6.03;5.50;;;3.40;90.70;;;;;;5095824;28;20467;-80
2020/12/29 05:18:43;;;;;;;6.47;5.87;;;3.40;90.50;;;;;;5095339;28;20959;-79
2020/12/29 05:21:10;;;;;;;5.93;5.43;;;3.30;90.30;;;;;;5095474;28;20441;-80
2020/12/29 05:23:37;;;;;;;6.60;5.57;;;3.20;90.60;;;;;;5095273;28;20810;-80
2020/12/29 05:26:03;;;;;;;5.67;5.17;;;3.30;90.60;;;;;;5095251;28;20547;-79
2020/12/29 05:28:30;;;;;;;7.27;6.20;;;3.20;90.40;;;;;;5095373;28;20489;-79
2020/12/29 05:30:58;;;;;;;6.73;6.03;;;3.20;90.50;;;;;;5095513;28;20442;-79
2020/12/29 05:33:25;;;;;;;8.00;5.47;;;3.20;90.50;;;;;;5095661;28;20944;-80
2020/12/29 05:35:53;;;;;;;6.80;5.80;;;3.10;90.80;;;;;;5098590;28;20454;-79
2020/12/29 05:38:19;;;;;;;8.20;6.93;;;3.00;91.00;;;;;;5098131;28;20939;-80
2020/12/29 05:40:47;;;;;;;10.20;6.53;;;2.90;91.20;;;;;;5098321;28;20450;-80
2020/12/29 05:43:13;;;;;;;17.30;6.90;;;2.90;91.40;;;;;;5098639;28;20449;-79
2020/12/29 05:45:40;;;;;;;8.60;6.80;;;2.90;91.50;;;;;;5097926;28;20446;-79
2020/12/29 05:48:07;;;;;;;8.57;6.47;;;2.90;91.50;;;;;;5097787;28;20482;-79
2020/12/29 05:50:34;;;;;;;8.10;5.60;;;3.00;91.20;;;;;;5097786;28;20453;-79
2020/12/29 05:53:05;;;;;;;8.87;6.40;;;3.00;90.90;;;;;;5097875;28;20451;-79
2020/12/29 05:55:32;;;;;;;6.40;5.80;;;3.10;90.80;;;;;;5101267;28;20426;-80
2020/12/29 05:58:01;;;;;;;9.70;6.30;;;3.20;90.60;;;;;;5103362;28;20466;-80
2020/12/29 06:00:27;;;;;;;6.00;5.40;;;3.20;90.50;;;;;;5102717;28;20451;-80
2020/12/29 06:02:55;;;;;;;8.40;6.40;;;3.30;90.20;;;;;;5101604;28;20451;-80
2020/12/29 06:05:23;;;;;;;13.00;6.50;;;3.30;90.10;;;;;;5102150;28;20470;-80
2020/12/29 06:07:53;;;;;;;10.00;6.47;;;3.40;90.00;;;;;;5100978;28;20494;-80
2020/12/29 06:10:19;;;;;;;7.63;5.50;;;3.30;89.60;;;;;;5100633;28;20460;-80
2020/12/29 06:12:51;;;;;;;8.83;5.93;;;3.30;89.90;;;;;;5100798;28;20530;-80
2020/12/29 06:15:22;;;;;;;10.80;5.70;;;3.20;90.00;;;;;;5100694;28;20433;-80
2020/12/29 06:17:54;;;;;;;7.27;5.80;;;3.20;90.30;;;;;;5099426;28;20467;-79
2020/12/29 06:20:20;;;;;;;9.83;6.07;;;3.20;90.30;;;;;;5099497;28;20437;-80
2020/12/29 06:22:51;;;;;;;7.17;5.53;;;3.20;90.40;;;;;;5099223;28;20428;-80
2020/12/29 06:25:18;;;;;;;8.47;5.67;;;3.20;90.50;;;;;;5098685;28;20424;-80
2020/12/29 06:27:51;;;;;;;11.07;6.13;;;3.30;90.50;;;;;;5098959;28;20490;-80
2020/12/29 06:30:19;;;;;;;8.50;6.00;;;3.30;90.60;;;;;;5098674;28;20427;-80
2020/12/29 06:32:48;;;;;;;8.80;6.30;;;3.40;90.60;;;;;;5098513;28;20511;-79
2020/12/29 06:35:15;;;;;;;9.30;5.83;;;3.40;90.60;;;;;;5098287;28;20453;-80
2020/12/29 06:37:50;;;;;;;7.70;6.20;;;3.40;90.70;;;;;;5098052;28;20976;-80
2020/12/29 06:40:19;;;;;;;6.17;5.57;;;3.40;90.70;;;;;;5097637;28;20442;-81
2020/12/29 06:42:47;;;;;;;9.97;6.93;;;3.40;90.80;;;;;;5097251;28;20447;-80
2020/12/29 06:45:13;;;;;;;11.60;7.70;;;3.40;90.90;;;;;;5097565;28;20460;-80
2020/12/29 06:47:42;;;;;;;8.50;6.60;;;3.40;90.90;;;;;;5097577;28;20494;-79
2020/12/29 06:50:29;;;;;;;12.03;7.20;;;3.40;90.90;;;;;;5097510;28;20855;-80
2020/12/29 06:52:59;;;;;;;9.97;6.17;;;3.50;91.00;;;;;;5097103;28;20446;-80
2020/12/29 06:55:29;;;;;;;8.60;6.67;;;3.60;90.80;;;;;;5097512;28;20462;-80
2020/12/29 06:57:55;;;;;;;10.53;7.00;;;3.60;90.70;;;;;;5097115;28;20463;-80
2020/12/29 07:00:24;;;;;;;7.43;6.60;;;3.50;90.70;;;;;;5097788;28;20431;-80
2020/12/29 07:02:52;;;;;;;9.33;7.50;;;3.60;90.80;;;;;;5096667;28;20547;-79
2020/12/29 07:05:21;;;;;;;10.27;6.73;;;3.60;90.80;;;;;;5096382;28;20932;-80
2020/12/29 07:07:54;;;;;;;7.40;6.70;;;3.60;90.60;;;;;;5096490;28;20493;-80
2020/12/29 07:10:22;;;;;;;6.50;5.90;;;3.50;90.70;;;;;;5096249;28;20438;-80
2020/12/29 07:12:50;;;;;;;10.40;6.50;;;3.50;90.80;;;;;;5095969;28;20435;-80
2020/12/29 07:15:20;;;;;;;9.50;6.30;;;3.60;90.90;;;;;;5095662;28;20443;-80
2020/12/29 07:18:00;;;;;;;11.50;9.07;;;3.50;90.60;;;;;;5095763;28;20456;-80
2020/12/29 07:20:30;;;;;;;14.13;8.03;;;3.60;90.70;;;;;;5100141;28;20462;-81
2020/12/29 07:22:58;;;;;;;10.17;7.50;;;3.50;90.70;;;;;;5100469;28;20446;-81
2020/12/29 07:25:26;;;;;;;9.67;6.67;;;3.40;90.90;;;;;;5100376;28;20486;-81
2020/12/29 07:27:59;;;;;;;12.00;8.00;;;3.50;91.10;;;;;;5100370;28;21007;-81
2020/12/29 07:30:25;;;;;;;10.13;7.47;;;3.40;91.30;;;;;;5100543;28;20939;-81
2020/12/29 07:32:52;;;;;;;9.30;7.77;;;3.40;91.40;;;;;;5100027;28;20590;-80
2020/12/29 07:35:19;;;;;;;10.33;8.20;;;3.50;91.50;;;;;;5100308;28;20505;-80
2020/12/29 07:37:49;;;;;;;9.00;6.80;;;3.50;91.40;;;;;;5099584;28;20490;-81
2020/12/29 07:40:15;;;;;;;15.07;6.80;;;3.50;91.40;;;;;;5100026;28;20492;-80
2020/12/29 07:42:42;;;;;;;8.57;6.30;;;3.60;91.40;;;;;;5098747;28;20500;-80
2020/12/29 07:45:09;;;;;;;8.47;5.97;;;3.60;91.40;;;;;;5098749;28;20443;-81
2020/12/29 07:47:35;;;;;;;13.10;7.00;;;3.60;91.40;;;;;;5097945;28;21027;-80
2020/12/29 07:50:01;;;;;;;10.83;6.37;;;3.60;91.40;;;;;;5098842;28;20442;-80
2020/12/29 07:52:28;;;;;;;8.70;6.33;;;3.60;91.50;;;;;;5097640;28;20438;-81
2020/12/29 07:55:08;;;;;;;10.70;6.30;;;3.50;91.60;;;;;;5097500;28;20504;-80
2020/12/29 07:57:34;;;;;;;6.23;5.57;;;3.40;91.80;;;;;;5097213;28;21022;-80
2020/12/29 08:00:15;;;;;;;13.23;6.80;;;3.40;92.00;;;;;;5097505;28;20450;-81
2020/12/29 08:02:49;;;;;;;9.23;6.07;;;3.40;92.10;;;;;;5097288;28;20435;-80
2020/12/29 08:05:16;;;;;;;10.00;6.47;;;3.40;92.20;;;;;;5097038;28;20520;-80
2020/12/29 08:07:42;;;;;;;7.40;6.30;;;3.30;92.30;;;;;;5096735;28;20911;-80
2020/12/29 08:10:09;;;;;;;14.63;6.77;;;3.30;92.40;;;;;;5096493;28;20447;-80
2020/12/29 08:12:35;;;;;;;17.37;7.13;;;3.30;92.40;;;;;;5096629;28;20449;-80
2020/12/29 08:15:01;;;;;;;9.47;6.30;;;3.40;92.40;;;;;;5097079;28;20492;-80
2020/12/29 08:17:28;;;;;;;13.00;6.20;;;3.40;92.30;;;;;;5095931;28;20460;-80
2020/12/29 08:19:59;;;;;;;10.60;7.50;;;3.50;92.30;;;;;;5096425;28;20504;-79
2020/12/29 08:22:27;;;;;;;9.57;7.60;;;3.50;92.20;;;;;;5095883;28;20453;-80
2020/12/29 08:24:54;;;;;;;9.50;7.27;;;3.60;92.20;;;;;;5103570;28;20805;-79
2020/12/29 08:27:20;;;;;;;10.73;7.00;;;3.60;92.10;;;;;;5102009;28;20489;-81
2020/12/29 08:29:47;;;;;;;9.93;7.27;;;3.60;92.00;;;;;;5100071;28;20481;-81
2020/12/29 08:32:17;;;;;;;10.70;6.10;;;3.60;91.80;;;;;;5100605;28;20452;-81
2020/12/29 08:34:47;;;;;;;8.90;6.53;;;3.70;91.80;;;;;;5100248;28;20491;-81
2020/12/29 08:37:22;;;;;;;9.57;6.47;;;3.60;91.70;;;;;;5100060;28;20458;-81
2020/12/29 08:39:54;;;;;;;12.47;6.90;;;3.70;91.80;;;;;;5099452;28;20427;-80
2020/12/29 08:42:22;;;;;;;14.63;6.20;;;3.70;91.70;;;;;;5099369;28;20790;-81
2020/12/29 08:44:48;;;;;;;11.37;6.53;;;3.70;91.80;;;;;;5102190;28;20454;-81
2020/12/29 08:47:15;;;;;;;9.93;6.77;;;3.70;91.70;;;;;;5101411;28;20504;-81
2020/12/29 08:49:42;;;;;;;14.87;8.30;;;3.80;91.70;;;;;;5099909;28;20431;-81
2020/12/29 08:52:09;;;;;;;8.87;6.40;;;3.90;91.70;;;;;;5098906;28;20833;-81
2020/12/29 08:54:37;;;;;;;21.70;14.37;;;3.90;91.60;;;;;;5098336;28;20447;-81
2020/12/29 08:57:05;;;;;;;21.43;14.27;;;3.90;91.60;;;;;;5098912;28;20463;-81
2020/12/29 08:59:37;;;;;;;12.13;7.30;;;4.00;91.50;;;;;;5099594;28;20782;-81
2020/12/29 09:02:03;;;;;;;12.10;10.20;;;4.00;91.60;;;;;;5099053;28;20443;-81
2020/12/29 09:04:31;;;;;;;11.17;8.90;;;4.00;91.60;;;;;;5099640;28;20455;-81
2020/12/29 09:06:59;;;;;;;10.57;6.80;;;4.10;91.40;;;;;;5099238;28;20562;-82
2020/12/29 09:09:27;;;;;;;13.77;8.00;;;4.10;91.40;;;;;;5102127;28;20461;-82
2020/12/29 09:12:13;;;;;;;10.83;7.20;;;4.20;91.40;;;;;;5103054;28;20501;-81
2020/12/29 09:14:51;;;;;;;14.23;7.50;;;4.20;91.40;;;;;;5101380;28;20438;-81
2020/12/29 09:17:17;;;;;;;13.60;6.70;;;4.30;91.50;;;;;;5102014;28;20915;-82
2020/12/29 09:20:03;;;;;;;11.20;7.57;;;4.30;91.40;;;;;;5101560;28;20431;-81
2020/12/29 09:22:29;;;;;;;12.50;7.10;;;4.30;91.40;;;;;;5101522;28;20489;-82
2020/12/29 09:24:56;;;;;;;8.67;7.03;;;4.40;91.60;;;;;;5103034;28;20854;-82
2020/12/29 09:27:30;;;;;;;12.90;8.10;;;4.40;91.60;;;;;;5102761;28;20494;-81
2020/12/29 09:29:56;;;;;;;12.80;8.03;;;4.40;91.80;;;;;;5102722;28;20423;-81
2020/12/29 09:32:24;;;;;;;15.70;8.53;;;4.30;92.00;;;;;;5101771;28;20447;-82
2020/12/29 09:34:50;;;;;;;16.93;8.50;;;4.30;92.40;;;;;;5102763;28;20504;-81
2020/12/29 09:37:16;;;;;;;13.80;9.23;;;4.30;92.60;;;;;;5101944;28;20470;-81
2020/12/29 09:39:43;;;;;;;16.23;8.80;;;4.30;92.70;;;;;;5102525;28;20909;-80
2020/12/29 09:42:10;;;;;;;13.10;10.10;;;4.20;92.70;;;;;;5103228;28;20450;-81
2020/12/29 09:44:36;;;;;;;15.30;9.00;;;4.20;93.00;;;;;;5102789;28;20455;-81
2020/12/29 09:47:02;;;;;;;18.27;9.57;;;4.30;93.10;;;;;;5101927;28;20908;-81
2020/12/29 09:49:28;;;;;;;15.50;9.30;;;4.30;93.20;;;;;;5102527;28;20451;-81
2020/12/29 09:51:55;;;;;;;21.77;11.17;;;4.30;93.10;;;;;;5101664;28;20436;-82
2020/12/29 09:54:22;;;;;;;15.10;10.50;;;4.40;93.20;;;;;;5102372;28;20455;-82
2020/12/29 09:56:48;;;;;;;13.80;9.40;;;4.50;93.00;;;;;;5101650;28;20965;-80
2020/12/29 09:59:15;;;;;;;16.37;9.90;;;4.50;93.00;;;;;;5101895;28;20431;-82
2020/12/29 10:01:41;;;;;;;18.63;10.97;;;4.60;93.00;;;;;;5101629;28;20962;-81
2020/12/29 10:04:07;;;;;;;18.93;10.40;;;4.60;93.10;;;;;;5101108;28;20494;-82
2020/12/29 10:06:33;;;;;;;15.97;10.73;;;4.70;93.00;;;;;;5102310;28;20471;-81
2020/12/29 10:09:00;;;;;;;16.50;10.93;;;4.70;93.00;;;;;;5100575;28;20473;-81
2020/12/29 10:11:26;;;;;;;16.10;11.90;;;4.90;92.90;;;;;;5100874;28;20438;-81
2020/12/29 10:13:53;;;;;;;20.43;12.10;;;4.90;92.90;;;;;;5104969;28;20451;-81
2020/12/29 10:16:20;;;;;;;20.00;11.50;;;4.90;92.90;;;;;;5104589;28;20517;-80
2020/12/29 10:18:46;;;;;;;19.23;12.37;;;4.90;92.80;;;;;;5104996;28;20447;-81
2020/12/29 10:21:12;;;;;;;17.70;12.50;;;4.90;92.70;;;;;;5103829;28;20424;-81
2020/12/29 10:23:38;;;;;;;17.20;12.47;;;5.00;93.00;;;;;;5103857;28;20444;-80
2020/12/29 10:26:04;;;;;;;24.33;13.03;;;4.90;93.10;;;;;;5104034;28;20467;-80
2020/12/29 10:28:31;;;;;;;22.93;14.50;;;5.00;93.10;;;;;;5102984;28;20487;-80
2020/12/29 10:30:57;;;;;;;17.10;14.20;;;5.00;93.30;;;;;;5102964;28;20443;-80
2020/12/29 10:33:24;;;;;;;25.27;15.10;;;5.00;93.10;;;;;;5102091;28;20425;-82
2020/12/29 10:35:52;;;;;;;24.10;15.23;;;5.00;93.10;;;;;;5101500;28;20804;-82
2020/12/29 10:38:18;;;;;;;24.53;16.23;;;5.00;93.30;;;;;;5101707;28;20439;-83
2020/12/29 10:40:44;;;;;;;27.00;15.97;;;5.00;93.20;;;;;;5102204;28;20450;-81
2020/12/29 10:43:11;;;;;;;23.13;16.20;;;5.10;93.30;;;;;;5101735;28;20983;-82
2020/12/29 10:45:37;;;;;;;23.07;16.40;;;5.10;93.20;;;;;;5101646;28;20452;-81
2020/12/29 10:48:03;;;;;;;26.43;16.40;;;5.10;93.20;;;;;;5101472;28;20844;-81
2020/12/29 10:50:30;;;;;;;25.67;17.27;;;5.20;93.20;;;;;;5100953;28;20507;-82
2020/12/29 10:52:58;;;;;;;27.80;16.37;;;5.10;93.10;;;;;;5100544;28;20448;-82
2020/12/29 10:55:24;;;;;;;27.67;16.27;;;5.10;93.20;;;;;;5100887;28;20432;-81
2020/12/29 10:57:50;;;;;;;27.03;18.07;;;5.10;93.30;;;;;;5100717;28;20969;-81
2020/12/29 11:00:16;;;;;;;30.17;18.37;;;5.10;93.40;;;;;;5099919;28;20450;-81
2020/12/29 11:02:42;;;;;;;24.83;16.50;;;5.20;93.20;;;;;;5100538;28;20448;-81
2020/12/29 11:05:09;;;;;;;28.63;18.07;;;5.20;93.20;;;;;;5099319;28;20831;-81
2020/12/29 11:07:36;;;;;;;27.10;19.00;;;5.20;93.20;;;;;;5101128;28;20484;-82
2020/12/29 11:10:02;;;;;;;26.10;16.43;;;5.20;93.10;;;;;;5099864;28;20439;-81
2020/12/29 11:12:29;;;;;;;23.13;16.20;;;5.30;93.10;;;;;;5100247;28;20431;-82
2020/12/29 11:14:55;;;;;;;26.07;16.30;;;5.20;92.80;;;;;;5099308;28;20450;-82
2020/12/29 11:17:22;;;;;;;22.50;16.57;;;5.20;93.00;;;;;;5099237;28;20467;-81
2020/12/29 11:19:48;;;;;;;27.03;17.07;;;5.20;93.00;;;;;;5099637;28;20444;-82
2020/12/29 11:22:14;;;;;;;23.27;16.20;;;5.30;93.00;;;;;;5098873;28;20447;-81
2020/12/29 11:24:42;;;;;;;24.87;15.63;;;5.30;92.90;;;;;;5098796;28;20506;-80
2020/12/29 11:27:08;;;;;;;25.93;15.43;;;5.40;92.80;;;;;;5098187;28;20467;-82
2020/12/29 11:29:34;;;;;;;23.13;16.93;;;5.30;92.70;;;;;;5098695;28;20444;-80
2020/12/29 11:32:00;;;;;;;21.87;15.57;;;5.30;92.60;;;;;;5097343;28;20439;-80
2020/12/29 11:34:27;;;;;;;22.57;13.03;;;5.30;92.60;;;;;;5098745;28;20436;-81
2020/12/29 11:36:53;;;;;;;20.00;13.70;;;5.40;92.70;;;;;;5098841;28;20467;-81
2020/12/29 11:39:19;;;;;;;27.10;14.67;;;5.40;92.30;;;;;;5102589;28;20435;-82
2020/12/29 11:41:51;;;;;;;20.80;13.40;;;5.40;92.20;;;;;;5102933;28;20435;-82
2020/12/29 11:44:17;;;;;;;17.50;12.43;;;5.60;92.40;;;;;;5101888;28;20490;-82
2020/12/29 11:46:43;;;;;;;16.60;11.40;;;5.70;92.00;;;;;;5100857;28;20448;-81
2020/12/29 11:49:10;;;;;;;18.93;11.97;;;5.90;91.50;;;;;;5098760;28;20475;-80
2020/12/29 11:51:36;;;;;;;17.17;12.17;;;6.00;90.80;;;;;;5099701;28;20443;-81
2020/12/29 11:54:02;;;;;;;17.60;11.20;;;6.10;90.60;;;;;;5099289;28;20910;-81
2020/12/29 11:56:28;;;;;;;19.10;11.50;;;6.00;90.20;;;;;;5099916;28;20588;-81
2020/12/29 11:58:56;;;;;;;16.03;12.17;;;6.10;90.20;;;;;;5099032;28;20439;-81
2020/12/29 12:01:22;;;;;;;15.73;11.00;;;6.10;90.00;;;;;;5098633;28;20940;-80
2020/12/29 12:03:49;;;;;;;16.07;10.80;;;6.10;89.90;;;;;;5097901;28;20440;-80
2020/12/29 12:06:15;;;;;;;23.27;11.67;;;6.10;90.40;;;;;;5098120;28;20466;-80
2020/12/29 12:08:41;;;;;;;13.73;10.60;;;6.10;90.30;;;;;;5097161;28;20992;-81
2020/12/29 12:11:07;;;;;;;15.20;10.50;;;6.10;90.00;;;;;;5097786;28;20432;-81
2020/12/29 12:13:33;;;;;;;16.63;10.07;;;6.20;90.10;;;;;;5099498;28;20446;-80
2020/12/29 12:16:00;;;;;;;15.77;10.00;;;6.20;89.70;;;;;;5097792;28;20419;-79
2020/12/29 12:18:26;;;;;;;16.00;11.07;;;6.40;89.70;;;;;;5097090;28;20428;-81
2020/12/29 12:20:53;;;;;;;13.40;10.03;;;6.50;87.90;;;;;;5097004;28;20448;-79
2020/12/29 12:23:19;;;;;;;15.67;10.07;;;6.40;88.10;;;;;;5096832;28;20898;-79
2020/12/29 12:25:45;;;;;;;14.73;10.57;;;6.50;88.40;;;;;;5096336;28;20464;-79
2020/12/29 12:28:11;;;;;;;15.67;9.83;;;6.50;88.20;;;;;;5096665;28;20483;-79
2020/12/29 12:30:38;;;;;;;12.37;9.33;;;6.50;88.10;;;;;;5096581;28;20454;-80
2020/12/29 12:33:05;;;;;;;11.57;8.43;;;6.60;87.30;;;;;;5096330;28;20448;-80
2020/12/29 12:35:32;;;;;;;15.63;8.70;;;6.50;87.70;;;;;;5096406;28;20443;-81
2020/12/29 12:37:58;;;;;;;10.30;7.90;;;6.50;88.40;;;;;;5096279;28;20513;-81
2020/12/29 12:40:24;;;;;;;16.90;10.23;;;6.50;87.60;;;;;;5095736;28;20432;-81
2020/12/29 12:42:51;;;;;;;12.37;9.10;;;6.50;86.90;;;;;;5094952;28;20435;-79
2020/12/29 12:45:17;;;;;;;15.93;9.37;;;6.50;87.40;;;;;;5097996;28;20446;-80
2020/12/29 12:47:43;;;;;;;12.57;8.90;;;6.40;87.40;;;;;;5097985;28;20973;-80
2020/12/29 12:50:10;;;;;;;10.93;9.37;;;6.40;87.20;;;;;;5099007;28;20439;-79